Station: Nerriga  

  Atmospheric Gas Attenuation - ITU Rec 676-11   ----------------- dB/100km -----------------
Date Time Temp RH % AH g/m3 Dew Point Wind Direction Speed kph Gust kph Barometer mB Rainfall Since 9am 24GHz 47GHz 76GHz 122GHz 134GHz 241GHz
08/05 12:30 12.6 60 6.64 5.1 39 52 1016.8 0 15.5 23.3 32.8 85.8 74.8 255.6
08/05 12:20 12.2 59 6.37 4.4 39 46 1016.9 0 14.9 23.0 32.0 83.5 71.8 245.1
08/05 12:10 12.3 59 6.41 4.5 33 46 1017 0 15.0 23.0 32.1 83.8 72.2 246.5
08/05 12:00 12.2 59 6.37 4.4 32 44 1017.3 0 14.9 23.0 32.0 83.6 71.8 245.2
08/05 11:50 12.5 60 6.6 4.9 37 44 1017.2 0 15.4 23.2 32.8 85.6 74.4 254.2
08/05 11:40 11.7 61 6.38 4.6 32 39 1017.7 0 14.9 23.1 32.3 84.2 72.4 247.2
08/05 11:30 11.9 61 6.46 4.6 32 48 1017.6 0 15.1 23.2 32.5 84.8 73.3 250.1
08/05 11:20 11.8 62 6.53 4.7 30 35 1017.9 0 15.3 23.3 32.8 85.7 74.2 253.5
08/05 11:10 11.4 61 6.26 4.3 30 37 1018.1 0 14.7 23.0 31.9 83.4 71.2 242.9
08/05 11:00 11.3 63 6.43 4.5 32 44 1018.1 0 15.1 23.3 32.6 85.2 73.5 250.7
08/05 10:50 11.7 65 6.8 5.3 20 28 1018.3 0 15.8 23.8 33.9 88.6 77.8 265.9
08/05 10:40 11 64 6.41 4.4 30 35 1018.2 0 15.0 23.4 32.7 85.3 73.5 250.8
08/05 10:30 11 64 6.41 4.5 37 50 1018.1 0 15.0 23.4 32.7 85.3 73.5 250.8
08/05 10:20 10.7 65 6.39 4.4 37 43 1018 0 15.0 23.4 32.7 85.4 73.5 250.8
08/05 10:10 10.9 64 6.37 4.5 35 46 1018.1 0 15.0 23.3 32.6 85.0 73.1 249.3
08/05 10:00 10.8 66 6.52 4.7 28 37 1018.1 0 15.3 23.6 33.2 86.7 75.1 256.3
08/05 09:50 10.5 68 6.6 4.8 26 32 1018.2 0 15.5 23.8 33.6 87.8 76.4 260.9
08/05 09:40 10.3 67 6.42 4.4 30 35 1018.1 0 15.1 23.6 33.0 86.2 74.3 253.5
08/05 09:30 10.2 70 6.66 5 26 37 1018.2 0 15.6 24.0 34.0 88.8 77.5 264.6
08/05 09:20 9.5 69 6.28 4.1 30 33 1018 0 14.8 23.6 32.8 85.6 73.2 249.7
08/05 09:10 9 70 6.17 3.8 26 33 1018.2 0 14.6 23.5 32.6 85.0 72.3 246.3
08/05 09:00 8.9 72 6.31 4.1 28 39 1018.1 0 14.9 23.8 33.1 86.5 74.2 253.0
08/05 08:50 8.4 72 6.11 3.6 30 35 1018 0 14.5 23.6 32.6 85.0 72.1 245.4
08/05 08:40 8.1 74 6.16 3.7 22 28 1018.1 0 14.6 23.7 32.9 85.8 73.0 248.7
08/05 08:30 8 75 6.2 3.8 24 33 1017.9 0 14.7 23.8 33.1 86.4 73.6 250.8
08/05 08:20 7.7 77 6.25 3.9 20 26 1018 0 14.8 24.0 33.4 87.2 74.5 254.0
08/05 08:10 7.3 78 6.17 3.7 35 41 1017.8 0 14.7 24.0 33.2 86.8 73.9 251.6
08/05 08:00 7 79 6.12 3.6 26 37 1018 0 14.6 24.0 33.2 86.6 73.5 250.3
08/05 07:50 6.7 80 6.08 3.5 28 48 1017.8 0 14.5 24.0 33.1 86.5 73.2 249.3
08/05 07:40 6.3 80 5.93 3.2 22 26 1017.9 0 14.2 23.8 32.7 85.3 71.6 243.6
08/05 07:30 6 81 5.88 3 22 37 1017.9 0 14.1 23.8 32.6 85.1 71.3 242.2
08/05 07:20 5.7 81 5.77 2.7 19 28 1017.7 0 13.9 23.7 32.3 84.2 70.1 238.0
08/05 07:10 5.8 81 5.81 2.8 20 24 1017.6 0 13.9 23.8 32.4 84.6 70.5 239.5
08/05 07:00 5.8 81 5.81 2.8 28 41 1017.3 0 13.9 23.8 32.4 84.5 70.5 239.5
08/05 06:50 5.6 81 5.73 2.7 30 37 1017.1 0 13.8 23.7 32.1 83.9 69.6 236.3
08/05 06:40 5.4 83 5.79 2.7 22 32 1017 0 13.9 23.8 32.5 84.7 70.5 239.7
08/05 06:30 5.3 83 5.76 2.7 19 28 1016.9 0 13.9 23.8 32.4 84.5 70.2 238.6
08/05 06:20 5.1 83 5.68 2.4 19 22 1017.1 0 13.7 23.7 32.1 83.9 69.4 235.5
08/05 06:10 5.1 83 5.68 2.4 17 19 1017.1 0 13.7 23.7 32.1 83.9 69.4 235.5
08/05 06:00 5.2 82 5.65 2.4 17 28 1017.3 0 13.6 23.7 32.0 83.5 68.9 233.8
08/05 05:50 5.2 81 5.58 2.2 13 13 1017.2 0 13.5 23.5 31.7 82.7 68.0 230.6
08/05 05:40 5 81 5.51 2.1 15 17 1017.3 0 13.3 23.5 31.5 82.2 67.2 227.9
08/05 05:30 5 81 5.51 2 15 24 1017.5 0 13.3 23.5 31.5 82.2 67.2 228.0
08/05 05:20 4.9 81 5.47 1.9 17 19 1017.3 0 13.2 23.4 31.4 81.8 66.8 226.4
08/05 05:10 5.1 79 5.41 1.7 19 22 1017.3 0 13.1 23.3 31.1 81.0 65.8 223.0
08/05 05:00 5.3 78 5.41 1.8 22 37 1017.3 0 13.1 23.2 31.0 80.8 65.6 222.5
08/05 04:50 5.5 77 5.41 1.8 28 32 1017.2 0 13.1 23.2 30.9 80.6 65.5 221.9
08/05 04:40 5.8 76 5.45 1.9 24 30 1017.5 0 13.2 23.2 31.0 80.7 65.8 222.9
08/05 04:30 5.7 76 5.41 1.8 24 37 1017.3 0 13.1 23.1 30.8 80.4 65.3 221.3
08/05 04:20 5.5 76 5.34 1.6 19 24 1016.7 0 12.9 23.1 30.6 79.8 64.5 218.6
08/05 04:10 5.5 76 5.34 1.6 24 28 1017.1 0 12.9 23.1 30.6 79.8 64.5 218.7
08/05 04:00 5.6 75 5.31 1.5 30 46 1017 0 12.9 23.0 30.5 79.4 64.1 217.0
08/05 03:50 5.2 77 5.31 1.5 26 30 1016.9 0 12.9 23.1 30.6 79.8 64.4 218.1
08/05 03:40 5.1 77 5.27 1.4 26 30 1016.9 0 12.8 23.1 30.5 79.5 64.0 216.5
08/05 03:30 4.9 77 5.2 1.2 20 30 1016.9 0 12.7 23.0 30.3 78.9 63.2 213.8
08/05 03:20 4.7 77 5.13 1 19 28 1017.1 0 12.5 22.9 30.1 78.4 62.5 211.2
08/05 03:10 4.8 76 5.1 0.9 17 19 1017.2 0 12.5 22.9 30.0 78.0 62.0 209.6
08/05 03:00 4.9 75 5.07 0.9 22 30 1017.2 0 12.4 22.8 29.8 77.6 61.5 208.0
08/05 02:50 5 76 5.17 1.1 20 24 1017.1 0 12.6 22.9 30.2 78.5 62.7 212.2
08/05 02:40 4.8 78 5.23 1.3 17 20 1017.1 0 12.7 23.1 30.5 79.4 63.7 215.5
08/05 02:30 3.1 82 4.91 0.3 9 15 1017.3 0 12.1 23.0 29.8 77.7 60.9 205.3
08/05 02:20 2.6 82 4.75 -0.2 9 11 1017.3 0 11.8 22.9 29.4 76.5 59.1 199.2
08/05 02:10 2.6 82 4.75 -0.2 9 11 1017.7 0 11.8 22.9 29.4 76.5 59.1 199.3
08/05 02:00 2.8 80 4.7 -0.3 7 13 1017.8 0 11.7 22.8 29.1 75.8 58.3 196.5
08/05 01:50 3.2 80 4.83 0.1 7 9 1017.9 0 11.9 22.9 29.5 76.8 59.8 201.5
08/05 01:40 3.5 77 4.74 -0.2 11 15 1018 0 11.7 22.7 29.0 75.6 58.4 196.6
08/05 01:30 4.4 75 4.9 0.4 15 26 1018 0 12.0 22.7 29.4 76.4 59.8 201.6
08/05 01:20 4.4 73 4.77 0.1 17 22 1018 0 11.8 22.5 28.8 75.0 58.1 195.7
08/05 01:10 4.4 75 4.9 0.3 19 24 1018 0 12.0 22.7 29.4 76.4 59.8 201.6
08/05 01:00 3.9 75 4.74 -0.1 15 20 1018.1 0 11.7 22.6 28.9 75.2 58.1 195.6
08/05 00:50 3.8 76 4.77 -0.1 15 19 1018.1 0 11.8 22.6 29.1 75.6 58.5 197.2
08/05 00:40 3.7 74 4.62 -0.5 13 15 1018.1 0 11.5 22.4 28.5 74.1 56.7 190.7
08/05 00:20 4.5 71 4.67 -0.3 19 20 1018.3 0 11.5 22.3 28.4 73.9 56.7 191.0
08/05 00:10 4.6 70 4.64 -0.4 17 19 1018.4 0 11.5 22.2 28.3 73.5 56.3 189.5
08/05 00:00 4.7 70 4.67 -0.3 20 32 1018.3 0 11.5 22.3 28.4 73.7 56.6 190.6
07/05 23:50 4.7 70 4.67 -0.3 24 30 1018.4 0 11.5 22.3 28.4 73.7 56.6 190.6
07/05 23:40 4.6 70 4.64 -0.4 22 26 1018.4 0 11.5 22.2 28.3 73.5 56.3 189.5
07/05 23:30 4.6 69 4.57 -0.6 20 32 1018.5 0 11.3 22.1 28.0 72.8 55.4 186.3
07/05 23:20 4.6 70 4.64 -0.4 20 24 1018.6 0 11.5 22.2 28.3 73.5 56.3 189.5
07/05 23:10 4.7 70 4.67 -0.3 22 30 1018.7 0 11.5 22.3 28.4 73.7 56.6 190.6
07/05 23:00 4.5 70 4.6 -0.5 19 24 1018.7 0 11.4 22.2 28.2 73.2 55.9 187.9
07/05 22:50 4.6 68 4.5 -0.8 19 28 1018.6 0 11.2 22.0 27.8 72.1 54.5 183.2
07/05 22:40 4.7 69 4.6 -0.5 22 26 1018.9 0 11.4 22.2 28.1 73.0 55.7 187.5
07/05 22:30 4.7 68 4.53 -0.7 20 28 1018.7 0 11.2 22.1 27.8 72.3 54.8 184.3
07/05 22:20 4.6 69 4.57 -0.6 20 22 1018.7 0 11.3 22.1 28.0 72.8 55.4 186.4
07/05 22:10 4.7 69 4.6 -0.5 20 24 1018.9 0 11.4 22.2 28.1 73.0 55.7 187.5
07/05 22:00 4.8 69 4.63 -0.4 22 35 1019 0 11.4 22.2 28.2 73.3 56.0 188.6
07/05 21:50 4.6 70 4.64 -0.4 22 24 1019 0 11.5 22.3 28.3 73.6 56.3 189.6
07/05 21:40 4.6 69 4.57 -0.6 19 24 1019 0 11.3 22.2 28.0 72.8 55.4 186.4
07/05 21:30 5 69 4.69 -0.2 20 35 1019 0 11.6 22.2 28.4 73.7 56.7 190.8
07/05 21:20 5 69 4.69 -0.2 17 20 1019 0 11.6 22.2 28.4 73.7 56.7 190.8
07/05 21:10 4.9 69 4.66 -0.3 17 20 1019.1 0 11.5 22.2 28.3 73.5 56.4 189.8
07/05 21:00 5.2 68 4.69 -0.2 22 32 1019 0 11.6 22.2 28.3 73.5 56.5 190.4
07/05 20:50 5.3 67 4.65 -0.2 28 32 1018.9 0 11.5 22.1 28.1 73.0 55.9 188.3
07/05 20:40 5.2 67 4.62 -0.3 17 20 1018.7 0 11.4 22.1 28.0 72.8 55.6 187.2
07/05 20:30 5.2 68 4.69 -0.2 20 32 1018.6 0 11.6 22.2 28.3 73.5 56.5 190.3
07/05 20:20 5.4 66 4.61 -0.5 19 20 1018.6 0 11.4 22.0 27.9 72.5 55.3 186.3
07/05 20:10 5.4 66 4.61 -0.5 22 30 1018.4 0 11.4 22.0 27.9 72.5 55.3 186.2
07/05 20:00 5.7 65 4.63 -0.4 30 44 1018.2 0 11.4 22.0 27.9 72.4 55.4 186.4
07/05 19:50 5.7 65 4.63 -0.4 24 32 1018.1 0 11.4 21.9 27.9 72.4 55.4 186.4

Last Refresh: 08-May-2026 12:07:27

Bureau of Meteorology